Terminal Aerodrome Forecast
Issued by NWS

Home | Current Version | Previous Version | Text Only | Print | Product List | Glossary On
Versions: 1 2 3 4 5 6 7 8 9 10 11 12 13 14 15 16 17 18 19 20 21 22 23 24 25 26 27 28 29 30 31
000
FTAK31 PANC 290541
TAFAAQ
TAF
PAAQ 290541Z 2906/3006 VRB03KT 6SM -RA FEW015 SCT035 BKN060
     FM290900 VRB03KT 5SM -RA SCT015 BKN030
     FM291600 VRB05KT P6SM VCSH SCT030 BKN050
     FM300000 VRB04KT P6SM FEW030 SCT050=

USA.gov is the U.S. government's official web portal to all federal, state and local government web resources and services.